Normandie — FNNO — position and weather

sailwx.info

Track history (hours):
 
Tides and Currents Weather Stations Pressure Air Temp Water Temp Dewpoint Dewpoint Depression Visibility Wind Speed Wind Dir Waves Ship Positions

Normandie

Operator: Brittany Ferries

Last reported at 2018-Jan-24 00:33 UTC. Time now 2018-Jan-24 01:24 UTC.
Position N 50°28' W 000°52'.

Length 161 m; beam 27 m.

Type: Passenger vessel. MMSI: 227273000.

Date/timePositionNaut miles runAvg speedWind from/ knotsBaromVisibWave heightAir tempDewpointWater temp
2018-Jan-24 00:33N 50°28' W 000°52'115.2
2018-Jan-24 00:30N 50°29' W 000°53'715.1
2018-Jan-24 00:00N 50°36' W 000°57'713.6
2018-Jan-23 23:30N 50°43' W 000°59'713.9
2018-Jan-23 23:00N 50°48' W 001°07'1 2.5
2018-Jan-23 22:30N 50°49' W 001°06'0 0.0
2018-Jan-23 22:00N 50°49' W 001°06'0 0.0
2018-Jan-23 21:30N 50°49' W 001°06'1 1.6
2018-Jan-23 21:01N 50°48' W 001°07'612.9
2018-Jan-23 20:30N 50°43' W 001°01'917.0
2018-Jan-23 20:00N 50°35' W 000°56'1019.8
2018-Jan-23 19:29N 50°25' W 000°51'2219.5
2018-Jan-23 18:21N 50°05' W 000°38'719.5
2018-Jan-23 18:00N 49°58' W 000°35'1019.8
2018-Jan-23 17:30N 49°49' W 000°30'1019.9
2018-Jan-23 17:01N 49°40' W 000°25'1020.1
2018-Jan-23 16:30N 49°30' W 000°19'919.2
2018-Jan-23 16:01N 49°21' W 000°15'4 7.6
2018-Jan-23 15:30N 49°17' W 000°15'0 0.0
2018-Jan-23 15:00N 49°17' W 000°15'0 0.0
2018-Jan-23 14:31N 49°17' W 000°15'0 0.0
2018-Jan-23 14:01N 49°17' W 000°15'3 5.9
2018-Jan-23 13:31N 49°20' W 000°14'1019.2
2018-Jan-23 13:00N 49°30' W 000°18'1019.5
2018-Jan-23 12:30N 49°39' W 000°23'1019.8
2018-Jan-23 12:00N 49°48' W 000°29'1019.9
2018-Jan-23 11:30N 49°57' W 000°34'1019.7
2018-Jan-23 11:01N 50°07' W 000°38'2419.5
2018-Jan-23 09:48N 50°29' W 000°52'619.4
2018-Jan-23 09:30N 50°34' W 000°56'917.9
2018-Jan-23 09:00N 50°43' W 000°59'714.8
2018-Jan-23 08:30N 50°48' W 001°07'1 1.9
2018-Jan-23 08:00N 50°49' W 001°06'0 0.0
2018-Jan-23 07:31N 50°49' W 001°06'0 0.0
2018-Jan-23 07:00N 50°49' W 001°06'0 0.4
2018-Jan-23 06:30N 50°49' W 001°06'510.1
2018-Jan-23 06:00N 50°44' W 001°03'714.5
2018-Jan-23 05:30N 50°37' W 000°59'611.5
2018-Jan-23 05:00N 50°32' W 000°57'611.6
2018-Jan-23 04:29N 50°26' W 000°53'1412.1
2018-Jan-23 03:20N 50°14' W 000°44'1311.6
2018-Jan-23 02:12N 50°02' W 000°35'211.2
2018-Jan-23 02:00N 49°60' W 000°33'611.2
2018-Jan-23 01:30N 49°54' W 000°30'611.3
2018-Jan-23 01:00N 49°49' W 000°27'611.4
2018-Jan-23 00:30N 49°44' W 000°25'611.4
2018-Jan-23 00:00N 49°38' W 000°22'611.4
2018-Jan-22 23:30N 49°33' W 000°20'611.1
2018-Jan-22 23:00N 49°27' W 000°17'510.9
2018-Jan-22 22:30N 49°22' W 000°15'5 9.8
2018-Jan-22 22:00N 49°17' W 000°15'0 0.1
2018-Jan-22 21:30N 49°17' W 000°15'0 0.0
2018-Jan-22 21:00N 49°17' W 000°15'0 0.1
2018-Jan-22 20:30N 49°17' W 000°15'5 9.4
2018-Jan-22 20:00N 49°22' W 000°14'1019.3
2018-Jan-22 19:30N 49°31' W 000°18'1019.4
2018-Jan-22 19:00N 49°40' W 000°24'1019.2
2018-Jan-22 18:30N 49°49' W 000°31'1019.1
2018-Jan-22 18:00N 49°57' W 000°37'1019.4
2018-Jan-22 17:30N 50°07' W 000°41'2218.4
2018-Jan-22 16:17N 50°28' W 000°53'518.0
2018-Jan-22 16:00N 50°33' W 000°55'918.1
2018-Jan-22 15:31N 50°41' W 001°01'714.9
2018-Jan-22 15:01N 50°48' W 001°07'1 2.5
2018-Jan-22 14:30N 50°49' W 001°06'0 0.0
2018-Jan-22 14:00N 50°49' W 001°06'0 0.0
2018-Jan-22 13:30N 50°49' W 001°06'2 3.1
2018-Jan-22 13:00N 50°47' W 001°06'4 7.4
2018-Jan-22 12:31N 50°44' W 001°03'917.8
2018-Jan-22 12:00N 50°36' W 000°57'1019.2
2018-Jan-22 11:30N 50°27' W 000°51'2618.9
2018-Jan-22 10:07N 50°03' W 000°36'218.6
2018-Jan-22 10:00N 50°01' W 000°35'918.4
2018-Jan-22 09:30N 49°52' W 000°31'917.2
2018-Jan-22 09:00N 49°44' W 000°27'917.6
2018-Jan-22 08:31N 49°36' W 000°22'917.9
2018-Jan-22 08:00N 49°27' W 000°17'917.1
2018-Jan-22 07:31N 49°19' W 000°15'2 3.0
2018-Jan-22 07:00N 49°17' W 000°15'0 0.0
2018-Jan-22 06:30N 49°17' W 000°15'0 0.0
2018-Jan-22 06:00N 49°17' W 000°15'0 0.2
2018-Jan-22 05:30N 49°17' W 000°15'611.5
2018-Jan-22 05:00N 49°23' W 000°14'714.1
2018-Jan-22 04:30N 49°30' W 000°18'714.1
2018-Jan-22 04:00N 49°36' W 000°23'714.0
2018-Jan-22 03:30N 49°43' W 000°26'714.1
2018-Jan-22 03:00N 49°49' W 000°30'714.4
2018-Jan-22 02:30N 49°56' W 000°34'814.7
2018-Jan-22 02:00N 50°03' W 000°38'2815.4
2018-Jan-22 00:09N 50°30' W 000°54'315.5
2018-Jan-21 23:58N 50°32' W 000°55'715.1
2018-Jan-21 23:30N 50°39' W 000°59'714.5
2018-Jan-21 23:00N 50°45' W 001°05'4 7.5
2018-Jan-21 22:30N 50°49' W 001°06'0 0.0
2018-Jan-21 22:00N 50°49' W 001°06'0 0.0
2018-Jan-21 21:30N 50°49' W 001°06'1 1.3
2018-Jan-21 21:01N 50°48' W 001°07'612.2
2018-Jan-21 20:31N 50°43' W 001°02'816.9
2018-Jan-21 20:00N 50°36' W 000°57'3218.4
2018-Jan-21 18:16N 50°05' W 000°41'518.2
2018-Jan-21 18:00N 50°01' W 000°39'918.3
2018-Jan-21 17:31N 49°52' W 000°33'918.4
2018-Jan-21 17:01N 49°44' W 000°28'918.4
2018-Jan-21 16:30N 49°35' W 000°22'918.2
2018-Jan-21 16:00N 49°27' W 000°17'917.8
2018-Jan-21 15:30N 49°18' W 000°15'1 1.3
2018-Jan-21 15:00N 49°17' W 000°15'0 0.0
2018-Jan-21 14:30N 49°17' W 000°15'0 0.0
2018-Jan-21 14:00N 49°17' W 000°15'2 4.9
2018-Jan-21 13:30N 49°20' W 000°14'918.1
2018-Jan-21 13:00N 49°29' W 000°18'918.6
2018-Jan-21 12:30N 49°37' W 000°23'918.4
2018-Jan-21 12:00N 49°46' W 000°27'918.5
2018-Jan-21 11:30N 49°55' W 000°32'918.7
2018-Jan-21 11:00N 50°03' W 000°37'3119.7
2018-Jan-21 09:25N 50°33' W 000°55'819.4
2018-Jan-21 09:01N 50°40' W 000°59'816.3
2018-Jan-21 08:31N 50°47' W 001°06'2 3.5
2018-Jan-21 08:00N 50°49' W 001°06'0 0.0
2018-Jan-21 07:30N 50°49' W 001°06'0 0.0
2018-Jan-21 07:00N 50°49' W 001°06'1 1.1
2018-Jan-21 06:31N 50°49' W 001°07'611.8
2018-Jan-21 06:00N 50°44' W 001°02'714.3
2018-Jan-21 05:30N 50°37' W 000°58'714.1
2018-Jan-21 05:00N 50°30' W 000°59'5214.4
2018-Jan-21 01:25N 49°38' W 000°55'511.5
2018-Jan-21 01:00N 49°35' W 000°49'510.6
2018-Jan-21 00:30N 49°32' W 000°42'510.2
2018-Jan-21 00:00N 49°29' W 000°36'5 9.8
2018-Jan-20 23:30N 49°27' W 000°29'5 9.3
2018-Jan-20 23:00N 49°25' W 000°23'4 8.9
2018-Jan-20 22:30N 49°22' W 000°17'4 8.6
2018-Jan-20 22:01N 49°18' W 000°15'1 1.9
2018-Jan-20 21:30N 49°17' W 000°15'0 0.0
2018-Jan-20 21:00N 49°17' W 000°15'0 0.0
2018-Jan-20 20:30N 49°17' W 000°15'3 5.2
2018-Jan-20 20:00N 49°20' W 000°14'1019.3
2018-Jan-20 19:31N 49°29' W 000°18'918.7
2018-Jan-20 19:00N 49°37' W 000°25'918.1
2018-Jan-20 18:30N 49°46' W 000°31'917.9
2018-Jan-20 18:00N 49°54' W 000°34'917.9
2018-Jan-20 17:30N 50°03' W 000°37'3117.7
2018-Jan-20 15:45N 50°32' W 000°55'417.8
2018-Jan-20 15:31N 50°36' W 000°57'917.6
2018-Jan-20 15:00N 50°44' W 001°04'510.1
2018-Jan-20 14:30N 50°49' W 001°06'0 0.1
2018-Jan-20 14:00N 50°49' W 001°06'0 0.0
2018-Jan-20 13:31N 50°49' W 001°06'0 0.1
2018-Jan-20 13:00N 50°49' W 001°06'5 9.0
2018-Jan-20 12:30N 50°44' W 001°04'918.8
2018-Jan-20 12:00N 50°36' W 000°57'1119.5
2018-Jan-20 11:26N 50°26' W 000°49'2219.4
2018-Jan-20 10:20N 50°06' W 000°39'619.0
2018-Jan-20 10:01N 49°60' W 000°36'918.7
2018-Jan-20 09:30N 49°51' W 000°31'919.0
2018-Jan-20 09:01N 49°42' W 000°26'1019.0
2018-Jan-20 08:30N 49°33' W 000°21'918.9
2018-Jan-20 08:00N 49°24' W 000°16'714.1
2018-Jan-20 07:30N 49°17' W 000°15'0 0.1
2018-Jan-20 07:00N 49°17' W 000°15'0 0.0
2018-Jan-20 06:30N 49°17' W 000°15'0 0.0
2018-Jan-20 06:00N 49°17' W 000°15'0 0.3
2018-Jan-20 05:30N 49°17' W 000°15'815.3
2018-Jan-20 05:01N 49°25' W 000°15'713.8
2018-Jan-20 04:30N 49°31' W 000°20'510.4
2018-Jan-20 04:00N 49°36' W 000°23'510.1
2018-Jan-20 03:30N 49°41' W 000°26'510.2
2018-Jan-20 03:00N 49°45' W 000°29'510.5
2018-Jan-20 02:30N 49°50' W 000°32'510.6
2018-Jan-20 02:00N 49°55' W 000°35'611.8
2018-Jan-20 01:30N 50°01' W 000°39'3414.9
2018-Jan-19 23:15N 50°33' W 000°54'415.0
2018-Jan-19 23:00N 50°36' W 000°57'714.3
2018-Jan-19 22:31N 50°42' W 001°02'612.7
2018-Jan-19 22:00N 50°48' W 001°07'1 2.0
2018-Jan-19 21:31N 50°49' W 001°06'0 0.0
2018-Jan-19 21:00N 50°49' W 001°06'0 0.0
2018-Jan-19 20:31N 50°49' W 001°06'0 0.0
2018-Jan-19 20:00N 50°49' W 001°06'0 0.2
2018-Jan-19 19:31N 50°49' W 001°06'4 7.0
2018-Jan-19 19:00N 50°45' W 001°05'815.7
2018-Jan-19 18:30N 50°39' W 000°58'1019.5
2018-Jan-19 18:00N 50°29' W 000°54'2519.5
2018-Jan-19 16:44N 50°05' W 000°43'520.0
2018-Jan-19 16:30N 50°01' W 000°41'1020.3
2018-Jan-19 16:00N 49°51' W 000°36'1020.4
2018-Jan-19 15:30N 49°42' W 000°31'510.7
2018-Jan-19 15:00N 49°39' W 000°24'3 6.5
2018-Jan-19 14:30N 49°42' W 000°25'816.1
2018-Jan-19 14:01N 49°34' W 000°20'816.2
2018-Jan-19 13:30N 49°27' W 000°16'817.0
2018-Jan-19 13:00N 49°18' W 000°15'1 2.2
2018-Jan-19 12:31N 49°17' W 000°15'0 0.0
2018-Jan-19 12:01N 49°17' W 000°15'0 0.0
2018-Jan-19 11:31N 49°17' W 000°15'0 0.0
2018-Jan-19 11:00N 49°17' W 000°15'0 0.0
2018-Jan-19 10:30N 49°17' W 000°15'0 0.0
2018-Jan-19 10:00N 49°17' W 000°15'0 0.0
2018-Jan-19 09:30N 49°17' W 000°15'0 0.0
2018-Jan-19 09:00N 49°17' W 000°15'0 0.0
2018-Jan-19 08:31N 49°17' W 000°15'0 0.0
2018-Jan-19 08:01N 49°17' W 000°15'0 0.0
2018-Jan-19 07:30N 49°17' W 000°15'0 0.0
2018-Jan-19 07:01N 49°17' W 000°15'0 0.0
2018-Jan-19 06:31N 49°17' W 000°15'2 4.9
2018-Jan-19 06:00N 49°20' W 000°14'816.0
2018-Jan-19 05:30N 49°28' W 000°14'815.9
2018-Jan-19 05:00N 49°35' W 000°18'815.7
2018-Jan-19 04:30N 49°43' W 000°22'815.4
2018-Jan-19 04:00N 49°50' W 000°27'815.0
2018-Jan-19 03:30N 49°57' W 000°32'815.1
2018-Jan-19 03:00N 50°04' W 000°36'2615.4
2018-Jan-19 01:19N 50°28' W 000°51'515.0
2018-Jan-19 00:58N 50°33' W 000°54'714.4
2018-Jan-19 00:30N 50°39' W 000°59'713.9
2018-Jan-19 00:00N 50°45' W 001°05'4 8.3
2018-Jan-18 23:30N 50°49' W 001°06'0 0.0
2018-Jan-18 23:00N 50°49' W 001°06'0 0.0
2018-Jan-18 22:30N 50°49' W 001°06'0 0.0
2018-Jan-18 22:00N 50°49' W 001°06'1 2.7
2018-Jan-18 21:30N 50°47' W 001°07'714.1
2018-Jan-18 21:00N 50°41' W 001°01'918.3
2018-Jan-18 20:30N 50°33' W 000°54'2718.0
2018-Jan-18 18:59N 50°08' W 000°39'918.5
2018-Jan-18 18:30N 49°59' W 000°37'918.2
2018-Jan-18 18:00N 49°51' W 000°31'918.8
2018-Jan-18 17:30N 49°42' W 000°26'1019.1
2018-Jan-18 17:00N 49°33' W 000°21'919.0
2018-Jan-18 16:30N 49°24' W 000°15'713.5
2018-Jan-18 16:00N 49°17' W 000°15'0 0.1
2018-Jan-18 15:30N 49°17' W 000°15'0 0.0
2018-Jan-18 15:00N 49°17' W 000°15'0 0.0
2018-Jan-18 14:30N 49°17' W 000°15'1 2.3
2018-Jan-18 14:01N 49°18' W 000°15'918.0
2018-Jan-18 13:30N 49°27' W 000°18'919.0
2018-Jan-18 13:00N 49°36' W 000°21'1019.3
2018-Jan-18 12:31N 49°45' W 000°27'1019.6
2018-Jan-18 12:00N 49°54' W 000°33'1019.8
2018-Jan-18 11:30N 50°04' W 000°39'2619.7
2018-Jan-18 10:12N 50°28' W 000°52'419.3
2018-Jan-18 09:58N 50°32' W 000°54'919.3
2018-Jan-18 09:30N 50°40' W 001°00'817.0
2018-Jan-18 09:01N 50°48' W 001°07'1 2.4
2018-Jan-18 08:30N 50°49' W 001°06'0 0.0
2018-Jan-18 08:01N 50°49' W 001°06'0 0.0
2018-Jan-18 07:30N 50°49' W 001°06'1 1.9
2018-Jan-18 07:00N 50°48' W 001°07'5 9.4
2018-Jan-18 06:30N 50°44' W 001°03'3 7.0
2018-Jan-18 06:00N 50°42' W 000°58'612.9
2018-Jan-18 05:31N 50°36' W 000°58'917.4
2018-Jan-18 05:00N 50°27' W 000°57'3516.2
2018-Jan-18 02:52N 49°53' W 000°53'615.4
2018-Jan-18 02:30N 49°47' W 000°52'816.2
2018-Jan-18 02:00N 49°39' W 000°50'816.5
2018-Jan-18 01:31N 49°33' W 000°41'815.6
2018-Jan-18 01:00N 49°29' W 000°31'1615.6
2018-Jan-18 00:00N 49°17' W 000°15'0 1.3
2018-Jan-17 23:57N 49°17' W 000°15'  
Track history (hours):
 
Tides and Currents Weather Stations Pressure Air Temp Water Temp Dewpoint Dewpoint Depression Visibility Wind Speed Wind Dir Waves Ship Positions

Normandie

Operator: Brittany Ferries

Last reported at 2018-Jan-24 00:33 UTC. Time now 2018-Jan-24 01:24 UTC.
Position N 50°28' W 000°52'.

Length 161 m; beam 27 m.

Type: Passenger vessel. MMSI: 227273000.

Date/timePositionNaut miles runAvg speedWind from/ knotsBaromVisibWave heightAir tempDewpointWater temp
2018-Jan-24 00:33N 50°28' W 000°52'115.2
2018-Jan-24 00:30N 50°29' W 000°53'715.1
2018-Jan-24 00:00N 50°36' W 000°57'713.6
2018-Jan-23 23:30N 50°43' W 000°59'713.9
2018-Jan-23 23:00N 50°48' W 001°07'1 2.5
2018-Jan-23 22:30N 50°49' W 001°06'0 0.0
2018-Jan-23 22:00N 50°49' W 001°06'0 0.0
2018-Jan-23 21:30N 50°49' W 001°06'1 1.6
2018-Jan-23 21:01N 50°48' W 001°07'612.9
2018-Jan-23 20:30N 50°43' W 001°01'917.0
2018-Jan-23 20:00N 50°35' W 000°56'1019.8
2018-Jan-23 19:29N 50°25' W 000°51'2219.5
2018-Jan-23 18:21N 50°05' W 000°38'719.5
2018-Jan-23 18:00N 49°58' W 000°35'1019.8
2018-Jan-23 17:30N 49°49' W 000°30'1019.9
2018-Jan-23 17:01N 49°40' W 000°25'1020.1
2018-Jan-23 16:30N 49°30' W 000°19'919.2
2018-Jan-23 16:01N 49°21' W 000°15'4 7.6
2018-Jan-23 15:30N 49°17' W 000°15'0 0.0
2018-Jan-23 15:00N 49°17' W 000°15'0 0.0
2018-Jan-23 14:31N 49°17' W 000°15'0 0.0
2018-Jan-23 14:01N 49°17' W 000°15'3 5.9
2018-Jan-23 13:31N 49°20' W 000°14'1019.2
2018-Jan-23 13:00N 49°30' W 000°18'1019.5
2018-Jan-23 12:30N 49°39' W 000°23'1019.8
2018-Jan-23 12:00N 49°48' W 000°29'1019.9
2018-Jan-23 11:30N 49°57' W 000°34'1019.7
2018-Jan-23 11:01N 50°07' W 000°38'2419.5
2018-Jan-23 09:48N 50°29' W 000°52'619.4
2018-Jan-23 09:30N 50°34' W 000°56'917.9
2018-Jan-23 09:00N 50°43' W 000°59'714.8
2018-Jan-23 08:30N 50°48' W 001°07'1 1.9
2018-Jan-23 08:00N 50°49' W 001°06'0 0.0
2018-Jan-23 07:31N 50°49' W 001°06'0 0.0
2018-Jan-23 07:00N 50°49' W 001°06'0 0.4
2018-Jan-23 06:30N 50°49' W 001°06'510.1
2018-Jan-23 06:00N 50°44' W 001°03'714.5
2018-Jan-23 05:30N 50°37' W 000°59'611.5
2018-Jan-23 05:00N 50°32' W 000°57'611.6
2018-Jan-23 04:29N 50°26' W 000°53'1412.1
2018-Jan-23 03:20N 50°14' W 000°44'1311.6
2018-Jan-23 02:12N 50°02' W 000°35'211.2
2018-Jan-23 02:00N 49°60' W 000°33'611.2
2018-Jan-23 01:30N 49°54' W 000°30'611.3
2018-Jan-23 01:00N 49°49' W 000°27'611.4
2018-Jan-23 00:30N 49°44' W 000°25'611.4
2018-Jan-23 00:00N 49°38' W 000°22'611.4
2018-Jan-22 23:30N 49°33' W 000°20'611.1
2018-Jan-22 23:00N 49°27' W 000°17'510.9
2018-Jan-22 22:30N 49°22' W 000°15'5 9.8
2018-Jan-22 22:00N 49°17' W 000°15'0 0.1
2018-Jan-22 21:30N 49°17' W 000°15'0 0.0
2018-Jan-22 21:00N 49°17' W 000°15'0 0.1
2018-Jan-22 20:30N 49°17' W 000°15'5 9.4
2018-Jan-22 20:00N 49°22' W 000°14'1019.3
2018-Jan-22 19:30N 49°31' W 000°18'1019.4
2018-Jan-22 19:00N 49°40' W 000°24'1019.2
2018-Jan-22 18:30N 49°49' W 000°31'1019.1
2018-Jan-22 18:00N 49°57' W 000°37'1019.4
2018-Jan-22 17:30N 50°07' W 000°41'2218.4
2018-Jan-22 16:17N 50°28' W 000°53'518.0
2018-Jan-22 16:00N 50°33' W 000°55'918.1
2018-Jan-22 15:31N 50°41' W 001°01'714.9
2018-Jan-22 15:01N 50°48' W 001°07'1 2.5
2018-Jan-22 14:30N 50°49' W 001°06'0 0.0
2018-Jan-22 14:00N 50°49' W 001°06'0 0.0
2018-Jan-22 13:30N 50°49' W 001°06'2 3.1
2018-Jan-22 13:00N 50°47' W 001°06'4 7.4
2018-Jan-22 12:31N 50°44' W 001°03'917.8
2018-Jan-22 12:00N 50°36' W 000°57'1019.2
2018-Jan-22 11:30N 50°27' W 000°51'2618.9
2018-Jan-22 10:07N 50°03' W 000°36'218.6
2018-Jan-22 10:00N 50°01' W 000°35'918.4
2018-Jan-22 09:30N 49°52' W 000°31'917.2
2018-Jan-22 09:00N 49°44' W 000°27'917.6
2018-Jan-22 08:31N 49°36' W 000°22'917.9
2018-Jan-22 08:00N 49°27' W 000°17'917.1
2018-Jan-22 07:31N 49°19' W 000°15'2 3.0
2018-Jan-22 07:00N 49°17' W 000°15'0 0.0
2018-Jan-22 06:30N 49°17' W 000°15'0 0.0
2018-Jan-22 06:00N 49°17' W 000°15'0 0.2
2018-Jan-22 05:30N 49°17' W 000°15'611.5
2018-Jan-22 05:00N 49°23' W 000°14'714.1
2018-Jan-22 04:30N 49°30' W 000°18'714.1
2018-Jan-22 04:00N 49°36' W 000°23'714.0
2018-Jan-22 03:30N 49°43' W 000°26'714.1
2018-Jan-22 03:00N 49°49' W 000°30'714.4
2018-Jan-22 02:30N 49°56' W 000°34'814.7
2018-Jan-22 02:00N 50°03' W 000°38'2815.4
2018-Jan-22 00:09N 50°30' W 000°54'315.5
2018-Jan-21 23:58N 50°32' W 000°55'715.1
2018-Jan-21 23:30N 50°39' W 000°59'714.5
2018-Jan-21 23:00N 50°45' W 001°05'4 7.5
2018-Jan-21 22:30N 50°49' W 001°06'0 0.0
2018-Jan-21 22:00N 50°49' W 001°06'0 0.0
2018-Jan-21 21:30N 50°49' W 001°06'1 1.3
2018-Jan-21 21:01N 50°48' W 001°07'612.2
2018-Jan-21 20:31N 50°43' W 001°02'816.9
2018-Jan-21 20:00N 50°36' W 000°57'3218.4
2018-Jan-21 18:16N 50°05' W 000°41'518.2
2018-Jan-21 18:00N 50°01' W 000°39'918.3
2018-Jan-21 17:31N 49°52' W 000°33'918.4
2018-Jan-21 17:01N 49°44' W 000°28'918.4
2018-Jan-21 16:30N 49°35' W 000°22'918.2
2018-Jan-21 16:00N 49°27' W 000°17'917.8
2018-Jan-21 15:30N 49°18' W 000°15'1 1.3
2018-Jan-21 15:00N 49°17' W 000°15'0 0.0
2018-Jan-21 14:30N 49°17' W 000°15'0 0.0
2018-Jan-21 14:00N 49°17' W 000°15'2 4.9
2018-Jan-21 13:30N 49°20' W 000°14'918.1
2018-Jan-21 13:00N 49°29' W 000°18'918.6
2018-Jan-21 12:30N 49°37' W 000°23'918.4
2018-Jan-21 12:00N 49°46' W 000°27'918.5
2018-Jan-21 11:30N 49°55' W 000°32'918.7
2018-Jan-21 11:00N 50°03' W 000°37'3119.7
2018-Jan-21 09:25N 50°33' W 000°55'819.4
2018-Jan-21 09:01N 50°40' W 000°59'816.3
2018-Jan-21 08:31N 50°47' W 001°06'2 3.5
2018-Jan-21 08:00N 50°49' W 001°06'0 0.0
2018-Jan-21 07:30N 50°49' W 001°06'0 0.0
2018-Jan-21 07:00N 50°49' W 001°06'1 1.1
2018-Jan-21 06:31N 50°49' W 001°07'611.8
2018-Jan-21 06:00N 50°44' W 001°02'714.3
2018-Jan-21 05:30N 50°37' W 000°58'714.1
2018-Jan-21 05:00N 50°30' W 000°59'5214.4
2018-Jan-21 01:25N 49°38' W 000°55'511.5
2018-Jan-21 01:00N 49°35' W 000°49'510.6
2018-Jan-21 00:30N 49°32' W 000°42'510.2
2018-Jan-21 00:00N 49°29' W 000°36'5 9.8
2018-Jan-20 23:30N 49°27' W 000°29'5 9.3
2018-Jan-20 23:00N 49°25' W 000°23'4 8.9
2018-Jan-20 22:30N 49°22' W 000°17'4 8.6
2018-Jan-20 22:01N 49°18' W 000°15'1 1.9
2018-Jan-20 21:30N 49°17' W 000°15'0 0.0
2018-Jan-20 21:00N 49°17' W 000°15'0 0.0
2018-Jan-20 20:30N 49°17' W 000°15'3 5.2
2018-Jan-20 20:00N 49°20' W 000°14'1019.3
2018-Jan-20 19:31N 49°29' W 000°18'918.7
2018-Jan-20 19:00N 49°37' W 000°25'918.1
2018-Jan-20 18:30N 49°46' W 000°31'917.9
2018-Jan-20 18:00N 49°54' W 000°34'917.9
2018-Jan-20 17:30N 50°03' W 000°37'3117.7
2018-Jan-20 15:45N 50°32' W 000°55'417.8
2018-Jan-20 15:31N 50°36' W 000°57'917.6
2018-Jan-20 15:00N 50°44' W 001°04'510.1
2018-Jan-20 14:30N 50°49' W 001°06'0 0.1
2018-Jan-20 14:00N 50°49' W 001°06'0 0.0
2018-Jan-20 13:31N 50°49' W 001°06'0 0.1
2018-Jan-20 13:00N 50°49' W 001°06'5 9.0
2018-Jan-20 12:30N 50°44' W 001°04'918.8
2018-Jan-20 12:00N 50°36' W 000°57'1119.5
2018-Jan-20 11:26N 50°26' W 000°49'2219.4
2018-Jan-20 10:20N 50°06' W 000°39'619.0
2018-Jan-20 10:01N 49°60' W 000°36'918.7
2018-Jan-20 09:30N 49°51' W 000°31'919.0
2018-Jan-20 09:01N 49°42' W 000°26'1019.0
2018-Jan-20 08:30N 49°33' W 000°21'918.9
2018-Jan-20 08:00N 49°24' W 000°16'714.1
2018-Jan-20 07:30N 49°17' W 000°15'0 0.1
2018-Jan-20 07:00N 49°17' W 000°15'0 0.0
2018-Jan-20 06:30N 49°17' W 000°15'0 0.0
2018-Jan-20 06:00N 49°17' W 000°15'0 0.3
2018-Jan-20 05:30N 49°17' W 000°15'815.3
2018-Jan-20 05:01N 49°25' W 000°15'713.8
2018-Jan-20 04:30N 49°31' W 000°20'510.4
2018-Jan-20 04:00N 49°36' W 000°23'510.1
2018-Jan-20 03:30N 49°41' W 000°26'510.2
2018-Jan-20 03:00N 49°45' W 000°29'510.5
2018-Jan-20 02:30N 49°50' W 000°32'510.6
2018-Jan-20 02:00N 49°55' W 000°35'611.8
2018-Jan-20 01:30N 50°01' W 000°39'3414.9
2018-Jan-19 23:15N 50°33' W 000°54'415.0
2018-Jan-19 23:00N 50°36' W 000°57'714.3
2018-Jan-19 22:31N 50°42' W 001°02'612.7
2018-Jan-19 22:00N 50°48' W 001°07'1 2.0
2018-Jan-19 21:31N 50°49' W 001°06'0 0.0
2018-Jan-19 21:00N 50°49' W 001°06'0 0.0
2018-Jan-19 20:31N 50°49' W 001°06'0 0.0
2018-Jan-19 20:00N 50°49' W 001°06'0 0.2
2018-Jan-19 19:31N 50°49' W 001°06'4 7.0
2018-Jan-19 19:00N 50°45' W 001°05'815.7
2018-Jan-19 18:30N 50°39' W 000°58'1019.5
2018-Jan-19 18:00N 50°29' W 000°54'2519.5
2018-Jan-19 16:44N 50°05' W 000°43'520.0
2018-Jan-19 16:30N 50°01' W 000°41'1020.3
2018-Jan-19 16:00N 49°51' W 000°36'1020.4
2018-Jan-19 15:30N 49°42' W 000°31'510.7
2018-Jan-19 15:00N 49°39' W 000°24'3 6.5
2018-Jan-19 14:30N 49°42' W 000°25'816.1
2018-Jan-19 14:01N 49°34' W 000°20'816.2
2018-Jan-19 13:30N 49°27' W 000°16'817.0
2018-Jan-19 13:00N 49°18' W 000°15'1 2.2
2018-Jan-19 12:31N 49°17' W 000°15'0 0.0
2018-Jan-19 12:01N 49°17' W 000°15'0 0.0
2018-Jan-19 11:31N 49°17' W 000°15'0 0.0
2018-Jan-19 11:00N 49°17' W 000°15'0 0.0
2018-Jan-19 10:30N 49°17' W 000°15'0 0.0
2018-Jan-19 10:00N 49°17' W 000°15'0 0.0
2018-Jan-19 09:30N 49°17' W 000°15'0 0.0
2018-Jan-19 09:00N 49°17' W 000°15'0 0.0
2018-Jan-19 08:31N 49°17' W 000°15'0 0.0
2018-Jan-19 08:01N 49°17' W 000°15'0 0.0
2018-Jan-19 07:30N 49°17' W 000°15'0 0.0
2018-Jan-19 07:01N 49°17' W 000°15'0 0.0
2018-Jan-19 06:31N 49°17' W 000°15'2 4.9
2018-Jan-19 06:00N 49°20' W 000°14'816.0
2018-Jan-19 05:30N 49°28' W 000°14'815.9
2018-Jan-19 05:00N 49°35' W 000°18'815.7
2018-Jan-19 04:30N 49°43' W 000°22'815.4
2018-Jan-19 04:00N 49°50' W 000°27'815.0
2018-Jan-19 03:30N 49°57' W 000°32'815.1
2018-Jan-19 03:00N 50°04' W 000°36'2615.4
2018-Jan-19 01:19N 50°28' W 000°51'515.0
2018-Jan-19 00:58N 50°33' W 000°54'714.4
2018-Jan-19 00:30N 50°39' W 000°59'713.9
2018-Jan-19 00:00N 50°45' W 001°05'4 8.3
2018-Jan-18 23:30N 50°49' W 001°06'0 0.0
2018-Jan-18 23:00N 50°49' W 001°06'0 0.0
2018-Jan-18 22:30N 50°49' W 001°06'0 0.0
2018-Jan-18 22:00N 50°49' W 001°06'1 2.7
2018-Jan-18 21:30N 50°47' W 001°07'714.1
2018-Jan-18 21:00N 50°41' W 001°01'918.3
2018-Jan-18 20:30N 50°33' W 000°54'2718.0
2018-Jan-18 18:59N 50°08' W 000°39'918.5
2018-Jan-18 18:30N 49°59' W 000°37'918.2
2018-Jan-18 18:00N 49°51' W 000°31'918.8
2018-Jan-18 17:30N 49°42' W 000°26'1019.1
2018-Jan-18 17:00N 49°33' W 000°21'919.0
2018-Jan-18 16:30N 49°24' W 000°15'713.5
2018-Jan-18 16:00N 49°17' W 000°15'0 0.1
2018-Jan-18 15:30N 49°17' W 000°15'0 0.0
2018-Jan-18 15:00N 49°17' W 000°15'0 0.0
2018-Jan-18 14:30N 49°17' W 000°15'1 2.3
2018-Jan-18 14:01N 49°18' W 000°15'918.0
2018-Jan-18 13:30N 49°27' W 000°18'919.0
2018-Jan-18 13:00N 49°36' W 000°21'1019.3
2018-Jan-18 12:31N 49°45' W 000°27'1019.6
2018-Jan-18 12:00N 49°54' W 000°33'1019.8
2018-Jan-18 11:30N 50°04' W 000°39'2619.7
2018-Jan-18 10:12N 50°28' W 000°52'419.3
2018-Jan-18 09:58N 50°32' W 000°54'919.3
2018-Jan-18 09:30N 50°40' W 001°00'817.0
2018-Jan-18 09:01N 50°48' W 001°07'1 2.4
2018-Jan-18 08:30N 50°49' W 001°06'0 0.0
2018-Jan-18 08:01N 50°49' W 001°06'0 0.0
2018-Jan-18 07:30N 50°49' W 001°06'1 1.9
2018-Jan-18 07:00N 50°48' W 001°07'5 9.4
2018-Jan-18 06:30N 50°44' W 001°03'3 7.0
2018-Jan-18 06:00N 50°42' W 000°58'612.9
2018-Jan-18 05:31N 50°36' W 000°58'917.4
2018-Jan-18 05:00N 50°27' W 000°57'3516.2
2018-Jan-18 02:52N 49°53' W 000°53'615.4
2018-Jan-18 02:30N 49°47' W 000°52'816.2
2018-Jan-18 02:00N 49°39' W 000°50'816.5
2018-Jan-18 01:31N 49°33' W 000°41'815.6
2018-Jan-18 01:00N 49°29' W 000°31'1615.6
2018-Jan-18 00:00N 49°17' W 000°15'0 1.3
2018-Jan-17 23:57N 49°17' W 000°15'  

Dump ship's entire track history